createdAt,value
2023-04-14T00:02:34.298Z,43.10
2023-04-14T00:12:42.770Z,42.80
2023-04-14T00:23:38.897Z,42.80
2023-04-14T00:33:48.011Z,42.60
2023-04-14T00:54:53.273Z,40.70
2023-04-14T01:05:00.460Z,41.40
2023-04-14T01:15:32.582Z,41.90
2023-04-14T01:26:24.133Z,42.30
2023-04-14T01:36:44.085Z,42.30
2023-04-14T01:46:57.851Z,42.30
2023-04-14T01:57:08.221Z,40.60
2023-04-14T02:07:16.857Z,39.90
2023-04-14T02:17:26.810Z,39.60
2023-04-14T02:27:38.683Z,40.00
2023-04-14T02:37:51.631Z,40.20
2023-04-14T02:48:01.369Z,40.00
2023-04-14T02:58:12.378Z,40.20
2023-04-14T03:19:41.755Z,40.60
2023-04-14T03:30:05.180Z,41.20
2023-04-14T03:40:19.485Z,41.50
2023-04-14T03:50:33.899Z,42.00
2023-04-14T04:00:47.442Z,42.70
2023-04-14T04:10:56.738Z,43.60
2023-04-14T04:21:09.032Z,44.20
2023-04-14T04:31:17.044Z,45.40
2023-04-14T04:41:52.880Z,46.60
2023-04-14T04:52:01.771Z,46.80
2023-04-14T05:02:24.261Z,46.90
2023-04-14T05:12:56.638Z,47.80
2023-04-14T05:23:43.748Z,48.20
2023-04-14T05:33:55.050Z,48.10
2023-04-14T05:44:39.371Z,48.30
2023-04-14T05:54:53.808Z,44.70
2023-04-14T06:05:31.790Z,45.00
2023-04-14T06:15:43.932Z,45.50
2023-04-14T06:25:59.281Z,45.60
2023-04-14T06:36:11.715Z,46.20
2023-04-14T06:46:27.137Z,47.10
2023-04-14T06:56:38.731Z,47.30
2023-04-14T07:06:51.581Z,47.40
2023-04-14T07:17:00.146Z,46.70
2023-04-14T07:37:53.746Z,47.50
2023-04-14T07:48:00.822Z,47.30
2023-04-14T07:58:09.222Z,47.20
2023-04-14T08:08:18.697Z,47.20
2023-04-14T08:18:27.630Z,47.00
2023-04-14T08:28:34.476Z,46.90
2023-04-14T08:38:42.954Z,46.80
2023-04-14T08:48:51.967Z,46.60
2023-04-14T08:59:02.568Z,46.60
2023-04-14T09:09:11.687Z,46.50
2023-04-14T09:19:25.257Z,46.20
2023-04-14T09:29:32.380Z,45.90
2023-04-14T09:39:53.321Z,45.80
2023-04-14T09:50:05.175Z,45.50
2023-04-14T10:00:35.534Z,45.30
2023-04-14T10:10:46.757Z,45.10
2023-04-14T10:20:59.381Z,44.80
2023-04-14T10:31:14.823Z,44.80
2023-04-14T10:41:30.412Z,44.60
2023-04-14T10:51:40.058Z,44.40
2023-04-14T11:02:08.377Z,44.00
2023-04-14T11:12:30.902Z,44.20
2023-04-14T11:22:48.562Z,43.90
2023-04-14T11:32:58.970Z,43.70
2023-04-14T11:43:12.158Z,43.60
2023-04-14T11:53:25.210Z,43.50
2023-04-14T12:03:36.920Z,43.50
2023-04-14T12:13:48.563Z,43.30
2023-04-14T12:24:03.821Z,43.30
2023-04-14T12:34:32.226Z,43.20
2023-04-14T12:45:01.791Z,43.10
2023-04-14T12:55:53.249Z,43.00
2023-04-14T13:06:33.933Z,42.90
2023-04-14T13:16:46.963Z,42.80
2023-04-14T13:26:58.940Z,42.70
2023-04-14T13:37:10.271Z,42.50
2023-04-14T13:47:33.863Z,42.40
2023-04-14T13:57:50.399Z,42.40
2023-04-14T14:08:06.540Z,42.20
2023-04-14T14:18:16.803Z,41.90
2023-04-14T14:28:27.494Z,42.00
2023-04-14T14:38:41.667Z,42.30
2023-04-14T15:14:08.803Z,40.90
2023-04-14T15:24:45.731Z,40.70
2023-04-14T15:37:11.512Z,40.80
2023-04-14T15:58:04.174Z,40.20
2023-04-14T16:08:17.803Z,39.90
2023-04-14T16:18:26.205Z,40.00
2023-04-14T16:28:33.168Z,39.30
2023-04-14T16:38:54.240Z,38.90
2023-04-14T16:49:05.390Z,38.90
2023-04-14T16:59:21.120Z,38.60
2023-04-14T17:09:29.134Z,38.30
2023-04-14T17:19:39.345Z,37.70
2023-04-14T17:29:47.920Z,37.20
2023-04-14T17:39:59.148Z,37.20
2023-04-14T17:50:07.659Z,37.00
2023-04-14T18:00:17.899Z,36.50
2023-04-14T18:10:25.766Z,36.10
2023-04-14T18:20:35.479Z,36.20
2023-04-14T18:30:43.328Z,36.40
2023-04-14T18:53:42.722Z,35.00
2023-04-14T19:03:49.530Z,35.90
2023-04-14T19:35:59.792Z,37.20
2023-04-14T19:46:08.957Z,37.40
2023-04-14T19:56:17.557Z,38.20
2023-04-14T20:06:24.273Z,38.50
2023-04-14T20:16:35.826Z,38.70
2023-04-14T20:26:44.597Z,38.60
2023-04-14T20:36:54.632Z,38.80
2023-04-14T20:47:09.203Z,39.00
2023-04-14T20:57:17.965Z,39.10
2023-04-14T21:07:25.094Z,39.20
2023-04-14T21:17:35.219Z,39.00
2023-04-14T21:27:42.542Z,38.90
2023-04-14T21:37:51.376Z,38.30
2023-04-14T21:47:59.672Z,38.20
2023-04-14T21:58:08.528Z,37.90
2023-04-14T22:08:15.533Z,37.80
2023-04-14T22:18:24.781Z,37.70
2023-04-14T22:28:40.525Z,37.60
2023-04-14T22:38:55.507Z,37.40
2023-04-14T22:49:03.136Z,36.60
2023-04-14T22:59:14.683Z,36.40
2023-04-14T23:09:22.109Z,35.40
2023-04-14T23:19:34.526Z,35.40
2023-04-14T23:29:41.401Z,35.10
2023-04-14T23:39:50.821Z,34.60
2023-04-14T23:49:58.846Z,34.50
